EDDS/STR METAR and TAF weather

Enter ICAO airport designator
Station Type Date Time Source
EDDS METAR 2019/08/24 20:50 UTC NOAA

EDDS 242050Z VRB01KT CAVOK 20/16 Q1019


Station Type Date Time Source
EDDS Decoded METAR 2019/08/24 20:50 UTC NOAA

Station name not available
Aug 24, 2019 - 04:50 PM EDT / 2019.08.24 2050 UTC
Wind: Variable at 1 MPH (1 KT):0
Visibility: greater than 7 mile(s):0
Temperature: 68 F (20 C)
Dew Point: 60 F (16 C)
Relative Humidity: 77%
Pressure (altimeter): 30.09 in. Hg (1019 hPa)
ob: EDDS 242050Z VRB01KT CAVOK 20/16 Q1019
cycle: 21

Station Type Date Time Source
EDDS TAF 2019/08/24 18:27 UTC NOAA

TAF EDDS 241700Z 2418/2518 VRB02KT CAVOK PROB30
TEMPO 2517/2518 TSRA SCT040CB

Example: see airport list